Atwater, Illinois
Current Conditions -  °F | °C
As of 4:15 AM on Thursday 18 Dec 2014 (Local Time) from K3LF Reporting Station
Overcast Overcast  
Wind Chill: 25°   Ceiling: 9000
Heat Index: 25°   Visibility: 10mi
Dew Point: 20°   Wind: 3mph
Humidity: 80%   Direction: 120°ESE
Pressure: 30.27"   Gusts: NA
Location:  39.33°N, 89.72°W
Report Text: K3LF 181015Z AUTO 12003KT 10SM OVC090 M04/M07 A3027 RMK AO2 T10381068
Loading
Personal Weather Stations






























Interactive Weather Map New forecast layout! Learn more

10-Day Weather Forecast

Advertisements
Track Severe Weather on mobile